Monday, April 27, 2015, 1:30 AM EDT

KRDG, Reading Regional Airport

Location: Reading, PA, United States Lat: 40.367
Local Time: 1:30 AM EDT ( 5:30 GMT) Lon: -75.967
Time Zone: US/Eastern Elev: 344 ft

Show me the last for .
Show Decoded

2015-04-27 00:54 METAR KRDG 270454Z 00000KT 10SM CLR 06/M02 A2974 RMK AO2 SLP077 T00611017
                 401720033 =
2015-04-26 23:54 METAR KRDG 270354Z 26003KT 10SM CLR 08/M03 A2974 RMK AO2 SLP074 T00831028 =
2015-04-26 22:54 METAR KRDG 270254Z 33004KT 10SM CLR 09/M02 A2973 RMK AO2 SLP074 T00891022 51012
                 =
2015-04-26 21:54 METAR KRDG 270154Z 35005KT 10SM CLR 09/M03 A2973 RMK AO2 SLP072 T00941028 =
2015-04-26 20:54 METAR KRDG 270054Z 01006KT 10SM FEW070 12/M03 A2971 RMK AO2 SLP067 T01171028 =
2015-04-26 19:54 METAR KRDG 262354Z COR 01008KT 20SM FEW070 13/M03 A2970 =
2015-04-26 18:54 METAR KRDG 262254Z 01008KT 10SM BKN085 15/M03 A2968 RMK AO2 SLP057 T01501033 =
2015-04-26 17:54 METAR KRDG 262154Z 34007KT 10SM BKN070 16/M02 A2967 RMK AO2 SLP052 T01561022 =
2015-04-26 16:54 METAR KRDG 262054Z COR 01007KT 20SM BKN070 17/M03 A2966 RMK AO2 SLP050 T01671028
                 56009 =
2015-04-26 15:54 METAR KRDG 261954Z 28004KT 10SM BKN080 16/M02 A2966 RMK AO2 SLP050 T01611022 =
2015-04-26 14:54 METAR KRDG 261854Z 00000KT 10SM BKN070 15/M02 A2967 =
2015-04-26 13:54 METAR KRDG 261754Z COR VRB04KT 20SM SCT060 15/M01 A2969 =
2015-04-26 12:54 METAR KRDG 261654Z VRB03KT 10SM CLR 13/M02 A2970 RMK AO2 SLP062 T01331022 =
2015-04-26 11:54 METAR KRDG 261554Z 00000KT 10SM CLR 13/M02 A2971 RMK AO2 SLP065 T01331017 =
2015-04-26 10:54 METAR KRDG 261454Z 02004KT 10SM CLR 12/M01 A2972 RMK AO2 SLP070 T01171011 51005
                 =
2015-04-26 09:54 METAR KRDG 261354Z 05009KT 10SM CLR 11/M01 A2972 RMK AO2 SLP068 T01111006 =
2015-04-26 08:54 METAR KRDG 261254Z 03009KT 10SM CLR 09/M02 A2971 RMK AO2 SLP067 T00891017 =
2015-04-26 07:54 METAR KRDG 261154Z 35004KT 10SM CLR 07/M02 A2971 RMK AO2 SLP065 T00671017 10067
                 20033 53005 =
2015-04-26 06:54 METAR KRDG 261054Z 01004KT 10SM CLR 04/M03 A2970 RMK AO2 SLP062 T00441028 =
2015-04-26 05:54 METAR KRDG 260954Z 34004KT 10SM CLR 04/M03 A2969 RMK AO2 SLP058 T00441028 =
2015-04-26 04:54 METAR KRDG 260854Z 32004KT 10SM CLR 04/M02 A2969 RMK AO2 SLP059 T00441022 53001
                 =
2015-04-26 03:54 METAR KRDG 260754Z 32006KT 10SM CLR 03/M02 A2968 RMK AO2 SLP055 T00331022 =
2015-04-26 02:54 METAR KRDG 260654Z 36004KT 10SM CLR 06/M02 A2968 RMK AO2 SLP057 T00561022 =
2015-04-26 01:54 METAR KRDG 260554Z 01005KT 10SM CLR 05/M01 A2968 RMK AO2 SLP057 T00501011 10111
                 20050 56006 =

Support USWX by starting your Amazon purchase here.